Thousand Oaks, CA (91360)

11:14 PM PDT on September 02, 2015 (GMT -0700)
College Park | | Change Station
CLOSE
Current Station
Personal Weather Station
Location: Thousand Oaks, CA
Elevation: 741 ft
Nearby Weather Stations

Elev 741 ft 34.22 °N, 118.88 °W | Updated 2 seconds ago

Clear
Clear
67.9 °F
Feels Like 67.9 °F
N
2.0
Wind Variable Wind from NNE
Gusts 2.0 mph

Today
High -- | Low -- °F
--% Chance of Precip.
Yesterday
High -- | Low -- °F
Precip. -- in
6:29 AM 7:20 PM
Waning Gibbous, 73% visible
Pressure 29.95 in
Visibility 10.0 miles
Clouds Mostly Cloudy 2200 ft
Dew Point 61 °F
Humidity 79%
Rainfall 0.00 in
Snow Depth Not available.
UV 0 out of 12
Pollen 8.60 out of 12
Air Quality Not available.
Flu Activity Not available.
METAR KCMA 030555Z 15003KT 10SM BKN022 21/15 A2992 RMK AO2 SLP141 T02060150 10244 20206 51014
Pressure 29.95 in
Visibility 10.0 miles
Clouds Mostly Cloudy 2200 ft
Dew Point 61 °F
Humidity 79%
Rainfall 0.00 in
Snow Depth Not available.
UV 0 out of 12
Pollen 8.60 out of 12
Air Quality Not available.
Flu Activity Not available.
METAR KCMA 030555Z 15003KT 10SM BKN022 21/15 A2992 RMK AO2 SLP141 T02060150 10244 20206 51014

10-Day Weather Forecast

×

Almanac

Astronomy

Sep. 02, 2015 Rise Set
Actual Time
Civil Twilight
Nautical Twilight
Astronomical Twilight
Moon
Length of Visible Light
Length of Day
Tomorrow will be .
, % of the Moon is Illuminated

Today's Extremes

State Highs State Lows

Community

WunderPhotos

Upload Photos

1,851,914 photos uploaded!

WunderBlogs® & News

Nearby

Air Quality

  Air Quality AQ Index Pollutant
Not available.

Snow Depth

Station Depth Elevation

Earthquake Activity

City Distance Mag. Time & Date
Minimum magnitude displayed is 2.5.

Coastal Water Temperatures

Place Temperature

Stations

Nearby Weather Stations

Station Location Temp. Windchill Dew Point Humidity Wind Precip. Elev Updated Type